Hlavní strana
METAR-TAF:

METAR-TAF

Letiště :

Letiště Taškent

Taškent, Uzbekistán

zeměpisná šířka: 41-16N, zeměpisná délka: 069-16E, výška: 489 m

Aktuální stav počasí

Zpráva byla vytvořena před 20 minutami, v 05:00 UTC
Jihozápadní vítr 8 kt s nárazy do 22 kt, proměnlivý mezi jižním a západním
Teplota 26°C
Vlhkost vzduchu 48%
Tlak 1010 hPa
Viditelnost 10 km a více
Polojasno ve výšce 6600 ft, Cumulonimbus.

METAR: UTTT 200500Z 22008G22KT 170V260 9999 SCT066CB 26/14 Q1010 R26L/CLRD70 NOSIG

Čas: 10:20 (05:20 UTC)

Předpověď počasí

Zpráva byla vytvořena před 6 hodinami a 20 minutami, v 23:00 UTC
Předpověď platná od 20 v 00 UTC do 20 v 24 UTC
Východoseverovýchodní vítr 10 kt
Viditelnost 10 km a více
Skoro jasno ve výšce 6000 ft, Cumulonimbus.
Polojasno ve výšce 10000 ft
Pravděpodobnost 40% :
Dočasný
od 20 v 00 UTC do 20 v 04 UTC
Polojasno ve výšce 4000 ft, Cumulonimbus.
bouřka, slabý déšť

TAF: UTTT 192300Z 2000/2024 07010KT 9999 FEW060CB SCT100 TX35/2009Z PROB40 TEMPO 2000/2004 -TSRA SCT040CB

Stav a předpovědi počasí z více než 4 000 letišť (zprávy METAR a TAF).

Červené a žluté tečky na mapě představují dostupné meteorologické stanice.

Když kurzor umístíte na tečku, zobrazí se název stanice.

Pak kliknutím zobrazíte stav a předpověď počasí.

Chcete-li změnit mapu, kliknutím na zelené tlačítko se znaménkem +mapu přiblížíte, kliknutím na zelené tlačítko se znaménkem – mapu oddálíte a kliknutím na zelené šipky přejdete na sousední mapy.


METAR-TAF: